createdAt,value
2023-04-26T00:04:08.288Z,94463.86
2023-04-26T00:12:31.942Z,94445.64
2023-04-26T00:20:54.835Z,94411.70
2023-04-26T00:29:17.739Z,94372.66
2023-04-26T00:37:41.753Z,94341.73
2023-04-26T00:46:04.972Z,94322.11
2023-04-26T00:54:28.985Z,94321.14
2023-04-26T01:02:52.373Z,94303.17
2023-04-26T01:11:15.765Z,94282.11
2023-04-26T01:19:50.174Z,94273.16
2023-04-26T01:28:13.220Z,94268.59
2023-04-26T01:36:36.211Z,94257.96
2023-04-26T01:44:59.160Z,94244.37
2023-04-26T01:53:22.201Z,94232.79
2023-04-26T02:01:45.357Z,94222.09
2023-04-26T02:10:08.978Z,94214.15
2023-04-26T02:18:31.894Z,94215.76
2023-04-26T02:26:55.198Z,94209.51
2023-04-26T02:35:18.666Z,94181.02
2023-04-26T02:43:41.721Z,94123.92
2023-04-26T02:52:05.207Z,94093.85
2023-04-26T03:00:28.818Z,94081.42
2023-04-26T03:08:52.199Z,94071.19
2023-04-26T03:17:15.557Z,94052.05
2023-04-26T03:25:38.836Z,94004.67
2023-04-26T03:34:01.955Z,93926.09
2023-04-26T03:42:25.184Z,93845.71
2023-04-26T03:50:48.361Z,93833.55
2023-04-26T03:59:12.236Z,93851.33
2023-04-26T04:07:35.625Z,93889.06
2023-04-26T04:15:58.702Z,93889.14
2023-04-26T04:24:21.946Z,93881.81
2023-04-26T04:32:45.399Z,93894.98
2023-04-26T04:41:10.524Z,93913.02
2023-04-26T04:49:34.531Z,93951.23
2023-04-26T04:57:57.630Z,93998.20
2023-04-26T05:06:21.612Z,94039.96
2023-04-26T05:14:44.870Z,94092.29
2023-04-26T05:23:07.938Z,94213.02
2023-04-26T05:31:31.747Z,94340.39
2023-04-26T05:40:08.883Z,94424.25
2023-04-26T05:48:32.343Z,94395.36
2023-04-26T05:56:57.850Z,94351.52
2023-04-26T06:05:23.179Z,94441.52
2023-04-26T06:13:46.687Z,94687.74
2023-04-26T06:22:11.287Z,94808.40
2023-04-26T06:30:34.927Z,94958.05
2023-04-26T06:38:59.146Z,94991.75
2023-04-26T06:47:22.545Z,94901.00
2023-04-26T06:55:46.189Z,94802.20
2023-04-26T07:04:10.922Z,94727.58
2023-04-26T07:12:34.384Z,94822.88
2023-04-26T07:20:57.701Z,94985.02
2023-04-26T07:29:20.823Z,95137.10
2023-04-26T07:37:45.033Z,95356.04
2023-04-26T07:46:08.357Z,95444.66
2023-04-26T07:54:31.903Z,95536.58
2023-04-26T08:02:55.278Z,95640.71
2023-04-26T08:11:18.536Z,95773.94
2023-04-26T08:19:41.595Z,95929.38
2023-04-26T08:28:05.208Z,95982.89
2023-04-26T08:36:28.173Z,95909.90
2023-04-26T08:44:53.248Z,95921.16
2023-04-26T08:53:20.173Z,96012.50
2023-04-26T09:01:44.968Z,95985.20
2023-04-26T09:10:09.766Z,95689.20
2023-04-26T09:18:34.281Z,95524.37
2023-04-26T09:27:03.815Z,95411.46
2023-04-26T09:35:41.120Z,95382.33
2023-04-26T09:44:04.130Z,95381.72
2023-04-26T09:52:29.330Z,95350.52
2023-04-26T10:00:53.269Z,95357.27
2023-04-26T10:09:16.270Z,95352.23
2023-04-26T10:17:39.407Z,95151.02
2023-04-26T10:26:02.360Z,95026.36
2023-04-26T10:34:25.363Z,95038.41
2023-04-26T10:42:48.384Z,95061.45
2023-04-26T10:51:12.738Z,94972.52
2023-04-26T10:59:47.132Z,94906.55
2023-04-26T11:08:19.425Z,94942.66
2023-04-26T11:16:42.531Z,95051.61
2023-04-26T11:25:06.482Z,95190.27
2023-04-26T11:33:29.550Z,95307.19
2023-04-26T11:41:57.198Z,95275.02
2023-04-26T11:50:24.046Z,95255.06
2023-04-26T11:58:49.199Z,95283.68
2023-04-26T12:07:12.123Z,95261.73
2023-04-26T12:15:35.107Z,95300.06
2023-04-26T12:23:58.103Z,95393.27
2023-04-26T12:32:22.560Z,95378.83
2023-04-26T12:40:47.030Z,95279.52
2023-04-26T12:49:10.179Z,95236.35
2023-04-26T12:57:33.223Z,95225.46
2023-04-26T13:05:56.240Z,95274.57
2023-04-26T13:14:19.234Z,95340.35
2023-04-26T13:22:43.492Z,95311.76
2023-04-26T13:31:06.970Z,95333.23
2023-04-26T13:39:31.271Z,95240.48
2023-04-26T13:47:54.266Z,95077.44
2023-04-26T13:56:17.967Z,94943.41
2023-04-26T14:04:41.729Z,94926.75
2023-04-26T14:13:04.852Z,94996.68
2023-04-26T14:21:28.091Z,95034.55
2023-04-26T14:29:51.028Z,94985.70
2023-04-26T14:38:14.250Z,94916.02
2023-04-26T14:46:37.778Z,94982.28
2023-04-26T14:55:00.820Z,95047.59
2023-04-26T15:03:24.000Z,94993.11
2023-04-26T15:11:47.160Z,94894.17
2023-04-26T15:20:10.703Z,94807.59
2023-04-26T15:28:33.917Z,94801.55
2023-04-26T15:37:02.420Z,94801.35
2023-04-26T15:45:25.372Z,94762.42
2023-04-26T15:53:50.734Z,94757.52
2023-04-26T16:02:13.688Z,94772.48
2023-04-26T16:10:38.511Z,94771.64
2023-04-26T16:19:01.605Z,94752.17
2023-04-26T16:27:24.650Z,94724.02
2023-04-26T16:35:52.845Z,94680.59
2023-04-26T16:44:16.868Z,94636.73
2023-04-26T16:52:40.291Z,94599.45
2023-04-26T17:01:03.297Z,94560.57
2023-04-26T17:09:26.858Z,94518.37
2023-04-26T17:17:50.932Z,94471.58
2023-04-26T17:26:13.978Z,94432.36
2023-04-26T17:34:38.935Z,94399.34
2023-04-26T17:43:02.016Z,94364.52
2023-04-26T17:51:25.049Z,94325.98
2023-04-26T17:59:47.981Z,94293.62
2023-04-26T18:08:11.428Z,94266.55
2023-04-26T18:16:34.430Z,94243.46
2023-04-26T18:24:57.903Z,94210.77
2023-04-26T18:33:20.948Z,94179.39
2023-04-26T18:41:44.318Z,94157.59
2023-04-26T18:50:08.237Z,94125.14
2023-04-26T18:58:31.526Z,94089.62
2023-04-26T19:06:54.484Z,94055.55
2023-04-26T19:15:17.724Z,94021.71
2023-04-26T19:23:41.128Z,93992.10
2023-04-26T19:32:07.046Z,93976.69
2023-04-26T19:40:30.438Z,93985.92
2023-04-26T19:48:53.806Z,94010.34
2023-04-26T19:57:16.713Z,94003.26
2023-04-26T20:05:39.802Z,93970.23
2023-04-26T20:14:02.924Z,93924.07
2023-04-26T20:22:25.895Z,93873.11
2023-04-26T20:30:48.890Z,93822.20
2023-04-26T20:39:12.196Z,93805.02
2023-04-26T20:47:37.269Z,93798.86
2023-04-26T20:56:00.765Z,93761.05
2023-04-26T21:04:24.060Z,93700.42
2023-04-26T21:12:47.417Z,93615.63
2023-04-26T21:21:11.323Z,93554.83
2023-04-26T21:29:34.653Z,93510.89
2023-04-26T21:37:57.527Z,93475.61
2023-04-26T21:46:20.567Z,93460.73
2023-04-26T21:54:43.948Z,93431.54
2023-04-26T22:03:07.148Z,93370.88
2023-04-26T22:11:30.230Z,93275.49
2023-04-26T22:19:55.625Z,93166.33
2023-04-26T22:28:19.371Z,93059.16
2023-04-26T22:36:42.418Z,93009.36
2023-04-26T22:45:07.207Z,92990.70
2023-04-26T22:53:30.652Z,92939.23
2023-04-26T23:01:53.520Z,92863.98
2023-04-26T23:10:16.845Z,92770.15
2023-04-26T23:18:42.208Z,92716.41
2023-04-26T23:27:05.136Z,92703.83
2023-04-26T23:35:28.700Z,92672.88
2023-04-26T23:43:51.889Z,92613.51
2023-04-26T23:52:15.093Z,92583.79
